sensor_id;sensor_type;location;lat;lon;timestamp;pressure;altitude;pressure_sealevel;temperature;humidity
75551;BME280;65071;53.082;18.218;2023-01-20T00:01:24;100663.90;;;-0.22;82.08
75551;BME280;65071;53.082;18.218;2023-01-20T00:03:53;100661.74;;;-0.25;82.05
75551;BME280;65071;53.082;18.218;2023-01-20T00:06:21;100657.08;;;-0.26;81.91
75551;BME280;65071;53.082;18.218;2023-01-20T00:08:51;100659.23;;;-0.30;81.96
75551;BME280;65071;53.082;18.218;2023-01-20T00:11:18;100669.91;;;-0.31;81.84
75551;BME280;65071;53.082;18.218;2023-01-20T00:13:46;100669.98;;;-0.32;81.87
75551;BME280;65071;53.082;18.218;2023-01-20T00:16:12;100670.39;;;-0.33;81.97
75551;BME280;65071;53.082;18.218;2023-01-20T00:18:39;100676.62;;;-0.31;81.89
75551;BME280;65071;53.082;18.218;2023-01-20T00:21:08;100677.95;;;-0.33;81.94
75551;BME280;65071;53.082;18.218;2023-01-20T00:23:36;100673.02;;;-0.33;82.03
75551;BME280;65071;53.082;18.218;2023-01-20T00:26:11;100671.80;;;-0.27;81.96
75551;BME280;65071;53.082;18.218;2023-01-20T00:28:39;100672.27;;;-0.23;82.09
75551;BME280;65071;53.082;18.218;2023-01-20T00:31:16;100673.68;;;-0.20;82.23
75551;BME280;65071;53.082;18.218;2023-01-20T00:33:43;100680.84;;;-0.18;82.08
75551;BME280;65071;53.082;18.218;2023-01-20T00:36:11;100685.13;;;-0.16;82.12
75551;BME280;65071;53.082;18.218;2023-01-20T00:38:38;100688.19;;;-0.17;82.09
75551;BME280;65071;53.082;18.218;2023-01-20T00:41:05;100694.42;;;-0.18;82.04
75551;BME280;65071;53.082;18.218;2023-01-20T00:43:33;100696.98;;;-0.19;82.07
75551;BME280;65071;53.082;18.218;2023-01-20T00:46:00;100694.00;;;-0.20;81.97
75551;BME280;65071;53.082;18.218;2023-01-20T00:48:27;100699.12;;;-0.23;82.10
75551;BME280;65071;53.082;18.218;2023-01-20T00:50:54;100697.14;;;-0.25;81.79
75551;BME280;65071;53.082;18.218;2023-01-20T00:53:20;100700.52;;;-0.25;81.95
75551;BME280;65071;53.082;18.218;2023-01-20T00:55:47;100704.14;;;-0.24;82.05
75551;BME280;65071;53.082;18.218;2023-01-20T00:58:14;100709.86;;;-0.22;82.08
75551;BME280;65071;53.082;18.218;2023-01-20T01:00:41;100712.33;;;-0.22;81.97
75551;BME280;65071;53.082;18.218;2023-01-20T01:03:08;100715.11;;;-0.24;81.87
75551;BME280;65071;53.082;18.218;2023-01-20T01:05:38;100716.52;;;-0.27;81.92
75551;BME280;65071;53.082;18.218;2023-01-20T01:08:04;100713.91;;;-0.28;81.81
75551;BME280;65071;53.082;18.218;2023-01-20T01:10:31;100712.32;;;-0.34;81.49
75551;BME280;65071;53.082;18.218;2023-01-20T01:12:59;100706.70;;;-0.41;81.63
75551;BME280;65071;53.082;18.218;2023-01-20T01:15:27;100703.27;;;-0.43;81.69
75551;BME280;65071;53.082;18.218;2023-01-20T01:17:54;100699.63;;;-0.47;81.56
75551;BME280;65071;53.082;18.218;2023-01-20T01:20:21;100699.73;;;-0.49;81.72
75551;BME280;65071;53.082;18.218;2023-01-20T01:22:48;100699.69;;;-0.48;81.81
75551;BME280;65071;53.082;18.218;2023-01-20T01:25:15;100703.40;;;-0.45;82.17
75551;BME280;65071;53.082;18.218;2023-01-20T01:27:42;100703.45;;;-0.40;81.87
75551;BME280;65071;53.082;18.218;2023-01-20T01:30:09;100704.95;;;-0.41;81.61
75551;BME280;65071;53.082;18.218;2023-01-20T01:32:36;100706.45;;;-0.43;81.81
75551;BME280;65071;53.082;18.218;2023-01-20T01:35:03;100703.83;;;-0.43;81.47
75551;BME280;65071;53.082;18.218;2023-01-20T01:37:30;100704.46;;;-0.42;81.67
75551;BME280;65071;53.082;18.218;2023-01-20T01:39:56;100698.70;;;-0.43;81.89
75551;BME280;65071;53.082;18.218;2023-01-20T01:42:25;100706.14;;;-0.43;81.86
75551;BME280;65071;53.082;18.218;2023-01-20T01:48:04;100718.30;;;-0.43;81.58
75551;BME280;65071;53.082;18.218;2023-01-20T01:50:34;100717.48;;;-0.44;81.49
75551;BME280;65071;53.082;18.218;2023-01-20T01:53:02;100720.27;;;-0.44;81.45
75551;BME280;65071;53.082;18.218;2023-01-20T01:55:33;100721.27;;;-0.36;81.54
75551;BME280;65071;53.082;18.218;2023-01-20T01:58:01;100723.77;;;-0.34;81.50
75551;BME280;65071;53.082;18.218;2023-01-20T02:00:30;100730.74;;;-0.32;81.43
75551;BME280;65071;53.082;18.218;2023-01-20T02:02:57;100733.23;;;-0.29;81.64
75551;BME280;65071;53.082;18.218;2023-01-20T02:05:25;100739.44;;;-0.26;81.67
75551;BME280;65071;53.082;18.218;2023-01-20T02:07:54;100744.48;;;-0.25;81.57
75551;BME280;65071;53.082;18.218;2023-01-20T02:10:22;100740.92;;;-0.25;81.75
75551;BME280;65071;53.082;18.218;2023-01-20T02:12:49;100740.21;;;-0.24;81.68
75551;BME280;65071;53.082;18.218;2023-01-20T02:15:23;100740.98;;;-0.25;81.68
75551;BME280;65071;53.082;18.218;2023-01-20T02:18:01;100738.39;;;-0.27;81.52
75551;BME280;65071;53.082;18.218;2023-01-20T02:20:47;100740.09;;;-0.28;81.70
75551;BME280;65071;53.082;18.218;2023-01-20T02:23:37;100745.13;;;-0.30;81.71
75551;BME280;65071;53.082;18.218;2023-01-20T02:34:14;100751.67;;;-0.30;81.57
75551;BME280;65071;53.082;18.218;2023-01-20T02:37:13;100755.92;;;-0.30;81.32
75551;BME280;65071;53.082;18.218;2023-01-20T02:39:52;100767.15;;;-0.26;81.57
75551;BME280;65071;53.082;18.218;2023-01-20T02:42:25;100774.86;;;-0.25;81.36
75551;BME280;65071;53.082;18.218;2023-01-20T02:47:30;100784.50;;;-0.30;81.74
75551;BME280;65071;53.082;18.218;2023-01-20T02:50:07;100788.10;;;-0.31;81.52
75551;BME280;65071;53.082;18.218;2023-01-20T02:52:38;100791.50;;;-0.31;81.64
75551;BME280;65071;53.082;18.218;2023-01-20T02:55:10;100789.89;;;-0.34;81.69
75551;BME280;65071;53.082;18.218;2023-01-20T02:57:43;100792.64;;;-0.30;81.36
75551;BME280;65071;53.082;18.218;2023-01-20T03:00:16;100795.05;;;-0.26;81.53
75551;BME280;65071;53.082;18.218;2023-01-20T03:02:47;100797.80;;;-0.24;81.36
75551;BME280;65071;53.082;18.218;2023-01-20T03:05:26;100797.70;;;-0.26;81.53
75551;BME280;65071;53.082;18.218;2023-01-20T03:07:54;100798.40;;;-0.25;81.70
75551;BME280;65071;53.082;18.218;2023-01-20T03:10:25;100798.93;;;-0.26;81.52
75551;BME280;65071;53.082;18.218;2023-01-20T03:15:28;100799.73;;;-0.27;81.54
75551;BME280;65071;53.082;18.218;2023-01-20T03:17:58;100799.86;;;-0.26;81.39
75551;BME280;65071;53.082;18.218;2023-01-20T03:20:25;100806.35;;;-0.29;80.87
75551;BME280;65071;53.082;18.218;2023-01-20T03:22:51;100807.13;;;-0.27;80.98
75551;BME280;65071;53.082;18.218;2023-01-20T03:25:19;100808.99;;;-0.25;81.29
75551;BME280;65071;53.082;18.218;2023-01-20T03:27:46;100807.10;;;-0.23;81.40
75551;BME280;65071;53.082;18.218;2023-01-20T03:30:14;100809.77;;;-0.20;81.41
75551;BME280;65071;53.082;18.218;2023-01-20T03:32:43;100808.83;;;-0.19;81.53
75551;BME280;65071;53.082;18.218;2023-01-20T03:35:11;100806.19;;;-0.22;81.19
75551;BME280;65071;53.082;18.218;2023-01-20T03:37:38;100805.16;;;-0.26;81.46
75551;BME280;65071;53.082;18.218;2023-01-20T03:40:06;100798.08;;;-0.29;81.48
75551;BME280;65071;53.082;18.218;2023-01-20T03:42:40;100791.19;;;-0.32;81.23
75551;BME280;65071;53.082;18.218;2023-01-20T03:45:15;100788.11;;;-0.34;81.07
75551;BME280;65071;53.082;18.218;2023-01-20T03:58:19;100805.20;;;-0.36;81.09
75551;BME280;65071;53.082;18.218;2023-01-20T04:00:48;100809.07;;;-0.33;81.15
75551;BME280;65071;53.082;18.218;2023-01-20T04:03:20;100813.85;;;-0.33;81.20
75551;BME280;65071;53.082;18.218;2023-01-20T04:05:48;100818.48;;;-0.31;81.25
75551;BME280;65071;53.082;18.218;2023-01-20T04:08:17;100824.02;;;-0.28;81.14
75551;BME280;65071;53.082;18.218;2023-01-20T04:10:47;100826.30;;;-0.28;81.16
75551;BME280;65071;53.082;18.218;2023-01-20T04:13:14;100826.52;;;-0.29;81.56
75551;BME280;65071;53.082;18.218;2023-01-20T04:15:42;100828.54;;;-0.30;81.31
75551;BME280;65071;53.082;18.218;2023-01-20T04:18:21;100831.89;;;-0.33;81.07
75551;BME280;65071;53.082;18.218;2023-01-20T04:20:51;100837.84;;;-0.36;80.91
75551;BME280;65071;53.082;18.218;2023-01-20T04:23:47;100842.23;;;-0.38;80.89
75551;BME280;65071;53.082;18.218;2023-01-20T04:26:15;100843.59;;;-0.34;80.98
75551;BME280;65071;53.082;18.218;2023-01-20T04:28:42;100848.70;;;-0.34;80.95
75551;BME280;65071;53.082;18.218;2023-01-20T04:31:09;100849.23;;;-0.37;81.28
75551;BME280;65071;53.082;18.218;2023-01-20T04:33:37;100855.81;;;-0.35;81.26
75551;BME280;65071;53.082;18.218;2023-01-20T04:36:04;100854.46;;;-0.39;81.12
75551;BME280;65071;53.082;18.218;2023-01-20T04:38:30;100853.55;;;-0.45;81.33
75551;BME280;65071;53.082;18.218;2023-01-20T04:40:57;100854.36;;;-0.47;81.04
75551;BME280;65071;53.082;18.218;2023-01-20T04:43:24;100858.40;;;-0.50;81.16
75551;BME280;65071;53.082;18.218;2023-01-20T04:45:50;100862.90;;;-0.51;81.27
75551;BME280;65071;53.082;18.218;2023-01-20T04:48:17;100868.29;;;-0.50;81.04
75551;BME280;65071;53.082;18.218;2023-01-20T04:50:44;100870.86;;;-0.52;80.79
75551;BME280;65071;53.082;18.218;2023-01-20T04:53:12;100872.89;;;-0.53;80.99
75551;BME280;65071;53.082;18.218;2023-01-20T04:55:42;100872.98;;;-0.51;80.88
75551;BME280;65071;53.082;18.218;2023-01-20T04:58:09;100878.77;;;-0.54;81.02
75551;BME280;65071;53.082;18.218;2023-01-20T05:00:36;100879.27;;;-0.60;80.80
75551;BME280;65071;53.082;18.218;2023-01-20T05:03:02;100886.86;;;-0.63;80.74
75551;BME280;65071;53.082;18.218;2023-01-20T05:05:31;100888.48;;;-0.67;80.92
75551;BME280;65071;53.082;18.218;2023-01-20T05:07:58;100892.64;;;-0.69;80.98
75551;BME280;65071;53.082;18.218;2023-01-20T05:10:25;100891.08;;;-0.70;81.14
75551;BME280;65071;53.082;18.218;2023-01-20T05:12:51;100894.02;;;-0.69;81.17
75551;BME280;65071;53.082;18.218;2023-01-20T05:15:18;100896.51;;;-0.69;81.09
75551;BME280;65071;53.082;18.218;2023-01-20T05:17:44;100897.58;;;-0.69;81.18
75551;BME280;65071;53.082;18.218;2023-01-20T05:20:12;100898.52;;;-0.64;81.09
75551;BME280;65071;53.082;18.218;2023-01-20T05:22:40;100897.76;;;-0.59;81.00
75551;BME280;65071;53.082;18.218;2023-01-20T05:25:07;100901.53;;;-0.54;81.32
75551;BME280;65071;53.082;18.218;2023-01-20T05:27:34;100906.13;;;-0.50;81.14
75551;BME280;65071;53.082;18.218;2023-01-20T05:30:03;100915.36;;;-0.45;81.33
75551;BME280;65071;53.082;18.218;2023-01-20T05:32:30;100920.02;;;-0.39;80.99
75551;BME280;65071;53.082;18.218;2023-01-20T05:34:57;100926.38;;;-0.39;81.07
75551;BME280;65071;53.082;18.218;2023-01-20T05:37:23;100931.64;;;-0.42;81.25
75551;BME280;65071;53.082;18.218;2023-01-20T05:39:50;100939.22;;;-0.45;81.09
75551;BME280;65071;53.082;18.218;2023-01-20T05:42:16;100939.91;;;-0.48;80.93
75551;BME280;65071;53.082;18.218;2023-01-20T05:44:43;100949.02;;;-0.50;81.05
75551;BME280;65071;53.082;18.218;2023-01-20T05:47:09;100957.48;;;-0.53;81.11
75551;BME280;65071;53.082;18.218;2023-01-20T05:49:36;100958.16;;;-0.52;81.23
75551;BME280;65071;53.082;18.218;2023-01-20T05:52:03;100963.20;;;-0.51;80.99
75551;BME280;65071;53.082;18.218;2023-01-20T05:54:29;100970.42;;;-0.54;81.07
75551;BME280;65071;53.082;18.218;2023-01-20T05:56:56;100969.15;;;-0.56;81.39
75551;BME280;65071;53.082;18.218;2023-01-20T05:59:24;100972.95;;;-0.55;81.25
75551;BME280;65071;53.082;18.218;2023-01-20T06:01:51;100977.11;;;-0.53;81.39
75551;BME280;65071;53.082;18.218;2023-01-20T06:04:17;100978.61;;;-0.58;81.31
75551;BME280;65071;53.082;18.218;2023-01-20T06:06:44;100981.20;;;-0.61;80.89
75551;BME280;65071;53.082;18.218;2023-01-20T06:09:10;100981.59;;;-0.65;80.87
75551;BME280;65071;53.082;18.218;2023-01-20T06:11:37;100985.37;;;-0.66;81.19
75551;BME280;65071;53.082;18.218;2023-01-20T06:14:04;100989.34;;;-0.64;81.10
75551;BME280;65071;53.082;18.218;2023-01-20T06:16:31;100992.98;;;-0.67;81.17
75551;BME280;65071;53.082;18.218;2023-01-20T06:18:57;100999.52;;;-0.67;81.24
75551;BME280;65071;53.082;18.218;2023-01-20T06:21:24;101001.73;;;-0.65;81.48
75551;BME280;65071;53.082;18.218;2023-01-20T06:23:51;101010.25;;;-0.62;81.25
75551;BME280;65071;53.082;18.218;2023-01-20T06:26:18;101012.36;;;-0.62;81.34
75551;BME280;65071;53.082;18.218;2023-01-20T06:28:45;101020.41;;;-0.61;81.28
75551;BME280;65071;53.082;18.218;2023-01-20T06:31:14;101024.61;;;-0.60;81.17
75551;BME280;65071;53.082;18.218;2023-01-20T06:33:41;101032.33;;;-0.62;81.28
75551;BME280;65071;53.082;18.218;2023-01-20T06:36:09;101031.45;;;-0.66;81.04
75551;BME280;65071;53.082;18.218;2023-01-20T06:38:39;101034.08;;;-0.69;81.32
75551;BME280;65071;53.082;18.218;2023-01-20T06:41:07;101035.70;;;-0.70;81.14
75551;BME280;65071;53.082;18.218;2023-01-20T06:43:36;101039.28;;;-0.71;81.14
75551;BME280;65071;53.082;18.218;2023-01-20T06:46:06;101041.81;;;-0.68;81.49
75551;BME280;65071;53.082;18.218;2023-01-20T06:48:35;101047.34;;;-0.66;81.42
75551;BME280;65071;53.082;18.218;2023-01-20T06:51:03;101049.96;;;-0.62;81.21
75551;BME280;65071;53.082;18.218;2023-01-20T06:53:30;101056.98;;;-0.58;81.21
75551;BME280;65071;53.082;18.218;2023-01-20T06:55:57;101057.31;;;-0.57;81.21
75551;BME280;65071;53.082;18.218;2023-01-20T06:58:27;101064.60;;;-0.58;81.43
75551;BME280;65071;53.082;18.218;2023-01-20T07:00:55;101070.98;;;-0.62;81.50
75551;BME280;65071;53.082;18.218;2023-01-20T07:03:23;101079.98;;;-0.62;81.23
75551;BME280;65071;53.082;18.218;2023-01-20T07:05:57;101081.78;;;-0.63;81.54
75551;BME280;65071;53.082;18.218;2023-01-20T07:08:24;101090.38;;;-0.61;81.16
75551;BME280;65071;53.082;18.218;2023-01-20T07:10:51;101095.83;;;-0.61;80.85
75551;BME280;65071;53.082;18.218;2023-01-20T07:13:18;101099.73;;;-0.61;80.93
75551;BME280;65071;53.082;18.218;2023-01-20T07:15:44;101097.30;;;-0.54;81.03
75551;BME280;65071;53.082;18.218;2023-01-20T07:18:11;101103.73;;;-0.53;80.89
75551;BME280;65071;53.082;18.218;2023-01-20T07:20:38;101102.21;;;-0.50;80.97
75551;BME280;65071;53.082;18.218;2023-01-20T07:23:04;101106.27;;;-0.43;81.10
75551;BME280;65071;53.082;18.218;2023-01-20T07:25:31;101109.75;;;-0.39;81.31
75551;BME280;65071;53.082;18.218;2023-01-20T07:27:58;101118.88;;;-0.34;81.16
75551;BME280;65071;53.082;18.218;2023-01-20T07:30:25;101125.14;;;-0.28;81.45
75551;BME280;65071;53.082;18.218;2023-01-20T07:32:52;101126.60;;;-0.26;81.50
75551;BME280;65071;53.082;18.218;2023-01-20T07:35:19;101124.02;;;-0.27;81.33
75551;BME280;65071;53.082;18.218;2023-01-20T07:37:45;101129.55;;;-0.25;81.17
75551;BME280;65071;53.082;18.218;2023-01-20T07:40:12;101128.45;;;-0.24;81.49
75551;BME280;65071;53.082;18.218;2023-01-20T07:42:39;101129.82;;;-0.23;81.07
75551;BME280;65071;53.082;18.218;2023-01-20T07:45:06;101129.93;;;-0.22;81.09
75551;BME280;65071;53.082;18.218;2023-01-20T07:47:33;101133.57;;;-0.20;81.20
75551;BME280;65071;53.082;18.218;2023-01-20T07:50:00;101138.63;;;-0.19;81.06
75551;BME280;65071;53.082;18.218;2023-01-20T07:52:26;101140.15;;;-0.14;81.03
75551;BME280;65071;53.082;18.218;2023-01-20T07:54:53;101151.95;;;-0.10;80.82
75551;BME280;65071;53.082;18.218;2023-01-20T07:57:19;101155.73;;;-0.08;81.14
75551;BME280;65071;53.082;18.218;2023-01-20T07:59:46;101158.27;;;-0.05;81.13
75551;BME280;65071;53.082;18.218;2023-01-20T08:02:13;101155.25;;;-0.02;80.96
75551;BME280;65071;53.082;18.218;2023-01-20T08:04:39;101154.04;;;0.05;80.88
75551;BME280;65071;53.082;18.218;2023-01-20T08:07:06;101155.79;;;0.09;81.00
75551;BME280;65071;53.082;18.218;2023-01-20T08:09:33;101156.24;;;0.14;80.88
75551;BME280;65071;53.082;18.218;2023-01-20T08:11:59;101156.89;;;0.19;81.35
75551;BME280;65071;53.082;18.218;2023-01-20T08:14:27;101159.82;;;0.20;80.50
75551;BME280;65071;53.082;18.218;2023-01-20T08:16:54;101165.95;;;0.21;80.58
75551;BME280;65071;53.082;18.218;2023-01-20T08:19:20;101168.19;;;0.23;80.00
75551;BME280;65071;53.082;18.218;2023-01-20T08:21:47;101174.42;;;0.22;80.11
75551;BME280;65071;53.082;18.218;2023-01-20T08:24:13;101175.27;;;0.23;80.29
75551;BME280;65071;53.082;18.218;2023-01-20T08:26:40;101180.80;;;0.25;80.48
75551;BME280;65071;53.082;18.218;2023-01-20T08:29:08;101175.98;;;0.29;79.86
75551;BME280;65071;53.082;18.218;2023-01-20T08:31:36;101179.41;;;0.35;79.78
75551;BME280;65071;53.082;18.218;2023-01-20T08:34:02;101187.67;;;0.39;79.51
75551;BME280;65071;53.082;18.218;2023-01-20T08:36:32;101193.09;;;0.40;78.57
75551;BME280;65071;53.082;18.218;2023-01-20T08:39:01;101193.19;;;0.42;78.28
75551;BME280;65071;53.082;18.218;2023-01-20T08:41:31;101196.60;;;0.41;78.57
75551;BME280;65071;53.082;18.218;2023-01-20T08:44:00;101201.41;;;0.37;78.41
75551;BME280;65071;53.082;18.218;2023-01-20T08:46:27;101207.09;;;0.37;78.79
75551;BME280;65071;53.082;18.218;2023-01-20T08:48:54;101208.45;;;0.34;79.01
75551;BME280;65071;53.082;18.218;2023-01-20T08:51:29;101215.06;;;0.36;79.59
75551;BME280;65071;53.082;18.218;2023-01-20T08:53:56;101219.70;;;0.42;79.45
75551;BME280;65071;53.082;18.218;2023-01-20T08:56:23;101222.98;;;0.47;79.51
75551;BME280;65071;53.082;18.218;2023-01-20T08:58:50;101227.27;;;0.50;79.42
75551;BME280;65071;53.082;18.218;2023-01-20T09:01:19;101224.86;;;0.52;79.07
75551;BME280;65071;53.082;18.218;2023-01-20T09:03:47;101225.92;;;0.55;79.05
75551;BME280;65071;53.082;18.218;2023-01-20T09:06:14;101226.51;;;0.65;79.19
75551;BME280;65071;53.082;18.218;2023-01-20T09:08:42;101228.29;;;0.72;79.04
75551;BME280;65071;53.082;18.218;2023-01-20T09:11:14;101236.92;;;0.79;79.17
75551;BME280;65071;53.082;18.218;2023-01-20T09:13:41;101238.56;;;0.88;79.04
75551;BME280;65071;53.082;18.218;2023-01-20T09:16:11;101240.15;;;0.95;79.00
75551;BME280;65071;53.082;18.218;2023-01-20T09:18:38;101240.81;;;0.99;78.89
75551;BME280;65071;53.082;18.218;2023-01-20T09:21:05;101240.80;;;1.06;78.78
75551;BME280;65071;53.082;18.218;2023-01-20T09:23:37;101240.77;;;1.13;78.04
75551;BME280;65071;53.082;18.218;2023-01-20T09:26:06;101244.83;;;1.20;78.40
75551;BME280;65071;53.082;18.218;2023-01-20T09:28:33;101244.77;;;1.21;76.87
75551;BME280;65071;53.082;18.218;2023-01-20T09:31:02;101238.58;;;1.24;77.66
75551;BME280;65071;53.082;18.218;2023-01-20T09:33:30;101235.80;;;1.29;78.07
75551;BME280;65071;53.082;18.218;2023-01-20T09:35:58;101238.73;;;1.34;77.86
75551;BME280;65071;53.082;18.218;2023-01-20T09:38:25;101242.70;;;1.46;77.89
75551;BME280;65071;53.082;18.218;2023-01-20T09:41:31;101248.00;;;1.56;78.33
75551;BME280;65071;53.082;18.218;2023-01-20T09:47:10;101263.74;;;1.63;78.06
75551;BME280;65071;53.082;18.218;2023-01-20T09:58:13;101259.46;;;1.79;77.18
75551;BME280;65071;53.082;18.218;2023-01-20T10:00:46;101264.11;;;1.85;76.88
75551;BME280;65071;53.082;18.218;2023-01-20T10:03:19;101266.08;;;1.84;76.40
75551;BME280;65071;53.082;18.218;2023-01-20T10:05:48;101260.16;;;1.70;73.36
75551;BME280;65071;53.082;18.218;2023-01-20T10:09:05;101259.78;;;1.58;73.70
75551;BME280;65071;53.082;18.218;2023-01-20T10:11:15;101258.77;;;1.51;74.33
75551;BME280;65071;53.082;18.218;2023-01-20T10:13:55;101258.56;;;1.57;74.90
75551;BME280;65071;53.082;18.218;2023-01-20T10:16:36;101264.66;;;1.72;76.09
75551;BME280;65071;53.082;18.218;2023-01-20T10:22:12;101264.98;;;1.91;75.06
75551;BME280;65071;53.082;18.218;2023-01-20T10:24:59;101264.14;;;2.06;75.87
75551;BME280;65071;53.082;18.218;2023-01-20T10:27:28;101260.67;;;2.17;74.67
75551;BME280;65071;53.082;18.218;2023-01-20T10:30:04;101255.23;;;2.25;74.63
75551;BME280;65071;53.082;18.218;2023-01-20T10:32:35;101245.69;;;2.25;74.02
75551;BME280;65071;53.082;18.218;2023-01-20T10:35:11;101240.70;;;2.28;74.86
75551;BME280;65071;53.082;18.218;2023-01-20T10:37:40;101238.60;;;2.27;73.54
75551;BME280;65071;53.082;18.218;2023-01-20T10:42:54;101248.14;;;2.34;75.68
75551;BME280;65071;53.082;18.218;2023-01-20T10:45:41;101239.91;;;2.35;75.40
75551;BME280;65071;53.082;18.218;2023-01-20T10:48:26;101237.21;;;2.36;74.46
75551;BME280;65071;53.082;18.218;2023-01-20T10:51:05;101232.86;;;2.34;74.87
75551;BME280;65071;53.082;18.218;2023-01-20T10:53:51;101243.34;;;2.32;74.99
75551;BME280;65071;53.082;18.218;2023-01-20T10:56:33;101256.48;;;2.22;74.32
75551;BME280;65071;53.082;18.218;2023-01-20T10:59:07;101268.20;;;2.09;73.43
75551;BME280;65071;53.082;18.218;2023-01-20T11:01:38;101264.67;;;2.06;74.11
75551;BME280;65071;53.082;18.218;2023-01-20T11:04:05;101259.20;;;2.02;74.47
75551;BME280;65071;53.082;18.218;2023-01-20T11:06:32;101256.74;;;1.99;73.49
75551;BME280;65071;53.082;18.218;2023-01-20T11:09:14;101260.82;;;2.02;74.31
75551;BME280;65071;53.082;18.218;2023-01-20T11:11:44;101266.23;;;2.07;74.35
75551;BME280;65071;53.082;18.218;2023-01-20T11:14:12;101272.27;;;2.07;73.41
75551;BME280;65071;53.082;18.218;2023-01-20T11:16:38;101275.55;;;1.99;73.16
75551;BME280;65071;53.082;18.218;2023-01-20T11:19:07;101276.90;;;1.97;74.37
75551;BME280;65071;53.082;18.218;2023-01-20T11:21:35;101274.50;;;1.95;74.17
75551;BME280;65071;53.082;18.218;2023-01-20T11:24:34;101272.02;;;1.89;74.93
75551;BME280;65071;53.082;18.218;2023-01-20T11:27:06;101277.83;;;1.81;74.48
75551;BME280;65071;53.082;18.218;2023-01-20T11:29:42;101286.09;;;1.69;74.01
75551;BME280;65071;53.082;18.218;2023-01-20T11:32:26;101291.33;;;1.67;74.46
75551;BME280;65071;53.082;18.218;2023-01-20T11:34:54;101299.70;;;1.73;74.56
75551;BME280;65071;53.082;18.218;2023-01-20T11:37:23;101306.20;;;1.68;74.86
75551;BME280;65071;53.082;18.218;2023-01-20T11:39:59;101302.90;;;1.57;74.37
75551;BME280;65071;53.082;18.218;2023-01-20T11:42:41;101304.00;;;1.59;74.77
75551;BME280;65071;53.082;18.218;2023-01-20T11:48:14;101302.34;;;1.61;74.83
75551;BME280;65071;53.082;18.218;2023-01-20T11:53:23;101309.88;;;1.42;74.15
75551;BME280;65071;53.082;18.218;2023-01-20T11:55:56;101313.69;;;1.44;74.84
75551;BME280;65071;53.082;18.218;2023-01-20T11:58:26;101311.02;;;1.51;74.85
75551;BME280;65071;53.082;18.218;2023-01-20T12:01:05;101312.15;;;1.59;74.73
75551;BME280;65071;53.082;18.218;2023-01-20T12:06:31;101319.21;;;1.54;74.35
75551;BME280;65071;53.082;18.218;2023-01-20T12:09:02;101325.25;;;1.60;74.72
75551;BME280;65071;53.082;18.218;2023-01-20T12:11:51;101330.95;;;1.63;74.29
75551;BME280;65071;53.082;18.218;2023-01-20T12:14:27;101330.61;;;1.66;74.57
75551;BME280;65071;53.082;18.218;2023-01-20T12:17:05;101328.65;;;1.62;74.28
75551;BME280;65071;53.082;18.218;2023-01-20T12:22:21;101332.70;;;1.53;73.81
75551;BME280;65071;53.082;18.218;2023-01-20T12:24:57;101331.77;;;1.47;73.23
75551;BME280;65071;53.082;18.218;2023-01-20T12:27:39;101335.61;;;1.52;73.66
75551;BME280;65071;53.082;18.218;2023-01-20T12:30:27;101340.86;;;1.60;74.38
75551;BME280;65071;53.082;18.218;2023-01-20T12:32:57;101343.80;;;1.61;73.42
75551;BME280;65071;53.082;18.218;2023-01-20T12:35:28;101343.71;;;1.63;74.35
75551;BME280;65071;53.082;18.218;2023-01-20T12:38:01;101348.45;;;1.64;73.95
75551;BME280;65071;53.082;18.218;2023-01-20T12:40:51;101348.76;;;1.64;74.19
75551;BME280;65071;53.082;18.218;2023-01-20T12:48:41;101352.73;;;1.63;74.19
75551;BME280;65071;53.082;18.218;2023-01-20T12:51:18;101356.82;;;1.53;73.05
75551;BME280;65071;53.082;18.218;2023-01-20T12:54:18;101362.45;;;1.57;74.40
75551;BME280;65071;53.082;18.218;2023-01-20T12:57:00;101365.02;;;1.58;73.93
75551;BME280;65071;53.082;18.218;2023-01-20T12:59:51;101372.44;;;1.60;74.05
75551;BME280;65071;53.082;18.218;2023-01-20T13:02:41;101378.60;;;1.60;74.17
75551;BME280;65071;53.082;18.218;2023-01-20T13:10:50;101389.73;;;1.54;73.91
75551;BME280;65071;53.082;18.218;2023-01-20T13:13:30;101394.37;;;1.54;74.18
75551;BME280;65071;53.082;18.218;2023-01-20T13:16:18;101396.80;;;1.51;74.26
75551;BME280;65071;53.082;18.218;2023-01-20T13:19:15;101395.83;;;1.46;74.02
75551;BME280;65071;53.082;18.218;2023-01-20T13:21:47;101403.73;;;1.47;74.18
75551;BME280;65071;53.082;18.218;2023-01-20T13:24:17;101404.13;;;1.54;74.35
75551;BME280;65071;53.082;18.218;2023-01-20T13:26:50;101406.14;;;1.56;73.83
75551;BME280;65071;53.082;18.218;2023-01-20T13:32:03;101402.19;;;1.53;74.09
75551;BME280;65071;53.082;18.218;2023-01-20T13:34:50;101404.29;;;1.54;74.48
75551;BME280;65071;53.082;18.218;2023-01-20T13:37:28;101405.89;;;1.54;74.17
75551;BME280;65071;53.082;18.218;2023-01-20T13:39:56;101406.59;;;1.50;74.16
75551;BME280;65071;53.082;18.218;2023-01-20T13:47:51;101400.52;;;1.40;74.40
75551;BME280;65071;53.082;18.218;2023-01-20T13:50:28;101398.96;;;1.37;74.27
75551;BME280;65071;53.082;18.218;2023-01-20T13:55:52;101406.33;;;1.41;74.34
75551;BME280;65071;53.082;18.218;2023-01-20T13:58:33;101405.74;;;1.46;74.53
75551;BME280;65071;53.082;18.218;2023-01-20T14:01:03;101414.33;;;1.44;74.78
75551;BME280;65071;53.082;18.218;2023-01-20T14:03:35;101414.65;;;1.42;75.04
75551;BME280;65071;53.082;18.218;2023-01-20T14:08:42;101414.61;;;1.32;74.72
75551;BME280;65071;53.082;18.218;2023-01-20T14:11:18;101412.93;;;1.24;74.90
75551;BME280;65071;53.082;18.218;2023-01-20T14:14:04;101415.20;;;1.17;74.61
75551;BME280;65071;53.082;18.218;2023-01-20T14:19:33;101430.37;;;1.05;74.72
75551;BME280;65071;53.082;18.218;2023-01-20T14:22:02;101435.65;;;1.05;74.41
75551;BME280;65071;53.082;18.218;2023-01-20T14:24:41;101438.48;;;1.09;74.77